sensor_id;sensor_type;location;lat;lon;timestamp;P1;durP1;ratioP1;P2;durP2;ratioP2
33902;SDS011;20194;50.950;5.346;2022-08-06T00:01:49;6.15;;;1.80;;
33902;SDS011;20194;50.950;5.346;2022-08-06T00:04:15;7.90;;;1.65;;
33902;SDS011;20194;50.950;5.346;2022-08-06T00:06:41;6.03;;;1.58;;
33902;SDS011;20194;50.950;5.346;2022-08-06T00:09:07;4.80;;;1.55;;
33902;SDS011;20194;50.950;5.346;2022-08-06T00:11:33;3.75;;;2.10;;
33902;SDS011;20194;50.950;5.346;2022-08-06T00:13:59;4.68;;;1.48;;
33902;SDS011;20194;50.950;5.346;2022-08-06T00:16:25;9.30;;;1.70;;
33902;SDS011;20194;50.950;5.346;2022-08-06T00:18:51;7.10;;;1.80;;
33902;SDS011;20194;50.950;5.346;2022-08-06T00:21:16;5.93;;;1.45;;
33902;SDS011;20194;50.950;5.346;2022-08-06T00:23:42;5.18;;;1.60;;
33902;SDS011;20194;50.950;5.346;2022-08-06T00:26:09;7.38;;;1.65;;
33902;SDS011;20194;50.950;5.346;2022-08-06T00:28:34;6.05;;;1.90;;
33902;SDS011;20194;50.950;5.346;2022-08-06T00:31:00;6.88;;;1.80;;
33902;SDS011;20194;50.950;5.346;2022-08-06T00:33:28;4.40;;;1.83;;
33902;SDS011;20194;50.950;5.346;2022-08-06T00:35:53;2.80;;;1.40;;
33902;SDS011;20194;50.950;5.346;2022-08-06T00:38:19;2.70;;;1.60;;
33902;SDS011;20194;50.950;5.346;2022-08-06T00:40:45;5.00;;;1.98;;
33902;SDS011;20194;50.950;5.346;2022-08-06T00:43:12;7.05;;;2.00;;
33902;SDS011;20194;50.950;5.346;2022-08-06T00:45:38;5.93;;;1.83;;
33902;SDS011;20194;50.950;5.346;2022-08-06T00:48:04;8.65;;;2.35;;
33902;SDS011;20194;50.950;5.346;2022-08-06T00:50:30;5.70;;;1.92;;
33902;SDS011;20194;50.950;5.346;2022-08-06T00:52:56;5.72;;;1.98;;
33902;SDS011;20194;50.950;5.346;2022-08-06T00:55:24;4.75;;;2.42;;
33902;SDS011;20194;50.950;5.346;2022-08-06T00:57:50;7.63;;;2.00;;
33902;SDS011;20194;50.950;5.346;2022-08-06T01:00:15;6.72;;;2.20;;
33902;SDS011;20194;50.950;5.346;2022-08-06T01:02:41;5.00;;;2.10;;
33902;SDS011;20194;50.950;5.346;2022-08-06T01:05:07;7.32;;;1.67;;
33902;SDS011;20194;50.950;5.346;2022-08-06T01:07:33;8.45;;;2.28;;
33902;SDS011;20194;50.950;5.346;2022-08-06T01:09:58;6.97;;;1.75;;
33902;SDS011;20194;50.950;5.346;2022-08-06T01:12:27;6.45;;;2.00;;
33902;SDS011;20194;50.950;5.346;2022-08-06T01:14:52;5.97;;;2.05;;
33902;SDS011;20194;50.950;5.346;2022-08-06T01:17:20;7.65;;;2.00;;
33902;SDS011;20194;50.950;5.346;2022-08-06T01:19:53;8.57;;;2.28;;
33902;SDS011;20194;50.950;5.346;2022-08-06T01:23:04;4.55;;;1.85;;
33902;SDS011;20194;50.950;5.346;2022-08-06T01:27:56;6.18;;;2.03;;
33902;SDS011;20194;50.950;5.346;2022-08-06T01:30:30;3.83;;;1.73;;
33902;SDS011;20194;50.950;5.346;2022-08-06T01:33:01;6.20;;;1.95;;
33902;SDS011;20194;50.950;5.346;2022-08-06T01:35:29;4.82;;;1.88;;
33902;SDS011;20194;50.950;5.346;2022-08-06T01:40:29;9.02;;;1.75;;
33902;SDS011;20194;50.950;5.346;2022-08-06T01:42:59;5.95;;;2.08;;
33902;SDS011;20194;50.950;5.346;2022-08-06T01:45:28;5.22;;;1.95;;
33902;SDS011;20194;50.950;5.346;2022-08-06T01:47:58;4.25;;;1.90;;
33902;SDS011;20194;50.950;5.346;2022-08-06T01:50:28;9.63;;;2.67;;
33902;SDS011;20194;50.950;5.346;2022-08-06T01:53:00;5.20;;;2.10;;
33902;SDS011;20194;50.950;5.346;2022-08-06T01:55:29;6.55;;;2.15;;
33902;SDS011;20194;50.950;5.346;2022-08-06T01:57:58;6.13;;;1.90;;
33902;SDS011;20194;50.950;5.346;2022-08-06T02:00:26;3.55;;;1.67;;
33902;SDS011;20194;50.950;5.346;2022-08-06T02:02:53;6.00;;;2.00;;
33902;SDS011;20194;50.950;5.346;2022-08-06T02:05:20;5.97;;;1.83;;
33902;SDS011;20194;50.950;5.346;2022-08-06T02:07:50;9.80;;;2.00;;
33902;SDS011;20194;50.950;5.346;2022-08-06T02:10:18;7.10;;;2.10;;
33902;SDS011;20194;50.950;5.346;2022-08-06T02:12:46;5.03;;;2.30;;
33902;SDS011;20194;50.950;5.346;2022-08-06T02:15:16;2.50;;;2.10;;
33902;SDS011;20194;50.950;5.346;2022-08-06T02:17:49;6.53;;;2.22;;
33902;SDS011;20194;50.950;5.346;2022-08-06T02:20:19;4.22;;;2.35;;
33902;SDS011;20194;50.950;5.346;2022-08-06T02:22:49;10.40;;;2.88;;
33902;SDS011;20194;50.950;5.346;2022-08-06T02:25:16;6.97;;;2.30;;
33902;SDS011;20194;50.950;5.346;2022-08-06T02:27:47;5.18;;;2.15;;
33902;SDS011;20194;50.950;5.346;2022-08-06T02:30:15;5.20;;;2.63;;
33902;SDS011;20194;50.950;5.346;2022-08-06T02:32:41;8.02;;;3.10;;
33902;SDS011;20194;50.950;5.346;2022-08-06T02:35:08;4.57;;;2.47;;
33902;SDS011;20194;50.950;5.346;2022-08-06T02:37:36;10.88;;;3.85;;
33902;SDS011;20194;50.950;5.346;2022-08-06T02:40:13;4.97;;;2.78;;
33902;SDS011;20194;50.950;5.346;2022-08-06T02:43:05;7.47;;;3.40;;
33902;SDS011;20194;50.950;5.346;2022-08-06T02:45:53;14.13;;;3.55;;
33902;SDS011;20194;50.950;5.346;2022-08-06T02:48:33;6.00;;;2.88;;
33902;SDS011;20194;50.950;5.346;2022-08-06T02:51:08;11.13;;;3.08;;
33902;SDS011;20194;50.950;5.346;2022-08-06T02:53:44;5.63;;;2.75;;
33902;SDS011;20194;50.950;5.346;2022-08-06T02:56:21;8.48;;;3.58;;
33902;SDS011;20194;50.950;5.346;2022-08-06T02:58:50;8.95;;;2.97;;
33902;SDS011;20194;50.950;5.346;2022-08-06T03:01:20;8.88;;;3.10;;
33902;SDS011;20194;50.950;5.346;2022-08-06T03:03:48;11.27;;;3.42;;
33902;SDS011;20194;50.950;5.346;2022-08-06T03:06:17;8.13;;;2.75;;
33902;SDS011;20194;50.950;5.346;2022-08-06T03:08:45;9.95;;;2.92;;
33902;SDS011;20194;50.950;5.346;2022-08-06T03:11:12;4.57;;;2.58;;
33902;SDS011;20194;50.950;5.346;2022-08-06T03:13:41;8.00;;;3.58;;
33902;SDS011;20194;50.950;5.346;2022-08-06T03:16:08;5.05;;;3.20;;
33902;SDS011;20194;50.950;5.346;2022-08-06T03:18:35;6.82;;;3.03;;
33902;SDS011;20194;50.950;5.346;2022-08-06T03:21:03;7.55;;;3.65;;
33902;SDS011;20194;50.950;5.346;2022-08-06T03:23:31;8.73;;;3.00;;
33902;SDS011;20194;50.950;5.346;2022-08-06T03:25:58;4.93;;;2.50;;
33902;SDS011;20194;50.950;5.346;2022-08-06T03:28:25;8.43;;;2.75;;
33902;SDS011;20194;50.950;5.346;2022-08-06T03:30:52;11.07;;;3.55;;
33902;SDS011;20194;50.950;5.346;2022-08-06T03:33:22;10.42;;;3.03;;
33902;SDS011;20194;50.950;5.346;2022-08-06T03:35:49;5.80;;;3.05;;
33902;SDS011;20194;50.950;5.346;2022-08-06T03:38:16;7.78;;;2.90;;
33902;SDS011;20194;50.950;5.346;2022-08-06T03:40:43;6.18;;;3.13;;
33902;SDS011;20194;50.950;5.346;2022-08-06T03:43:09;16.08;;;4.13;;
33902;SDS011;20194;50.950;5.346;2022-08-06T03:45:37;7.28;;;3.20;;
33902;SDS011;20194;50.950;5.346;2022-08-06T03:48:06;9.23;;;3.17;;
33902;SDS011;20194;50.950;5.346;2022-08-06T03:50:34;7.75;;;3.08;;
33902;SDS011;20194;50.950;5.346;2022-08-06T03:53:08;11.65;;;3.97;;
33902;SDS011;20194;50.950;5.346;2022-08-06T03:55:39;8.25;;;3.20;;
33902;SDS011;20194;50.950;5.346;2022-08-06T03:58:08;5.63;;;3.35;;
33902;SDS011;20194;50.950;5.346;2022-08-06T04:00:55;9.43;;;3.60;;
33902;SDS011;20194;50.950;5.346;2022-08-06T04:03:24;6.70;;;2.75;;
33902;SDS011;20194;50.950;5.346;2022-08-06T04:05:50;9.95;;;3.17;;
33902;SDS011;20194;50.950;5.346;2022-08-06T04:08:18;6.80;;;2.83;;
33902;SDS011;20194;50.950;5.346;2022-08-06T04:10:45;11.70;;;3.22;;
33902;SDS011;20194;50.950;5.346;2022-08-06T04:13:16;13.32;;;3.22;;
33902;SDS011;20194;50.950;5.346;2022-08-06T04:15:44;7.32;;;3.10;;
33902;SDS011;20194;50.950;5.346;2022-08-06T04:18:12;7.85;;;3.22;;
33902;SDS011;20194;50.950;5.346;2022-08-06T04:20:40;7.30;;;2.88;;
33902;SDS011;20194;50.950;5.346;2022-08-06T04:23:09;8.75;;;2.75;;
33902;SDS011;20194;50.950;5.346;2022-08-06T04:25:38;8.23;;;3.08;;
33902;SDS011;20194;50.950;5.346;2022-08-06T04:28:06;5.75;;;2.60;;
33902;SDS011;20194;50.950;5.346;2022-08-06T04:30:33;5.65;;;2.60;;
33902;SDS011;20194;50.950;5.346;2022-08-06T04:33:04;5.28;;;2.17;;
33902;SDS011;20194;50.950;5.346;2022-08-06T04:35:33;8.70;;;2.70;;
33902;SDS011;20194;50.950;5.346;2022-08-06T04:38:02;6.18;;;2.75;;
33902;SDS011;20194;50.950;5.346;2022-08-06T04:40:29;11.85;;;4.85;;
33902;SDS011;20194;50.950;5.346;2022-08-06T04:42:56;7.30;;;3.35;;
33902;SDS011;20194;50.950;5.346;2022-08-06T04:45:22;3.40;;;2.20;;
33902;SDS011;20194;50.950;5.346;2022-08-06T04:47:48;4.18;;;2.58;;
33902;SDS011;20194;50.950;5.346;2022-08-06T04:50:14;7.35;;;2.70;;
33902;SDS011;20194;50.950;5.346;2022-08-06T04:52:40;9.07;;;2.97;;
33902;SDS011;20194;50.950;5.346;2022-08-06T04:55:07;7.75;;;2.58;;
33902;SDS011;20194;50.950;5.346;2022-08-06T04:57:33;4.63;;;2.50;;
33902;SDS011;20194;50.950;5.346;2022-08-06T04:59:58;8.80;;;2.40;;
33902;SDS011;20194;50.950;5.346;2022-08-06T05:02:24;8.02;;;2.63;;
33902;SDS011;20194;50.950;5.346;2022-08-06T05:04:50;10.77;;;2.83;;
33902;SDS011;20194;50.950;5.346;2022-08-06T05:07:24;4.03;;;2.33;;
33902;SDS011;20194;50.950;5.346;2022-08-06T05:09:54;3.85;;;2.72;;
33902;SDS011;20194;50.950;5.346;2022-08-06T05:12:25;7.65;;;2.65;;
33902;SDS011;20194;50.950;5.346;2022-08-06T05:14:55;10.18;;;3.00;;
33902;SDS011;20194;50.950;5.346;2022-08-06T05:17:30;5.13;;;2.70;;
33902;SDS011;20194;50.950;5.346;2022-08-06T05:20:01;6.35;;;2.90;;
33902;SDS011;20194;50.950;5.346;2022-08-06T05:22:35;4.55;;;2.72;;
33902;SDS011;20194;50.950;5.346;2022-08-06T05:25:02;6.53;;;2.90;;
33902;SDS011;20194;50.950;5.346;2022-08-06T05:27:30;7.18;;;3.35;;
33902;SDS011;20194;50.950;5.346;2022-08-06T05:29:56;5.05;;;2.60;;
33902;SDS011;20194;50.950;5.346;2022-08-06T05:32:22;10.75;;;3.58;;
33902;SDS011;20194;50.950;5.346;2022-08-06T05:34:48;10.20;;;3.15;;
33902;SDS011;20194;50.950;5.346;2022-08-06T05:37:14;10.77;;;3.22;;
33902;SDS011;20194;50.950;5.346;2022-08-06T05:39:40;10.38;;;3.17;;
33902;SDS011;20194;50.950;5.346;2022-08-06T05:42:05;7.50;;;3.03;;
33902;SDS011;20194;50.950;5.346;2022-08-06T05:44:31;7.68;;;3.30;;
33902;SDS011;20194;50.950;5.346;2022-08-06T05:46:58;6.82;;;3.50;;
33902;SDS011;20194;50.950;5.346;2022-08-06T05:49:34;6.32;;;3.13;;
33902;SDS011;20194;50.950;5.346;2022-08-06T06:00:05;6.40;;;3.90;;
33902;SDS011;20194;50.950;5.346;2022-08-06T06:02:41;12.30;;;4.68;;
33902;SDS011;20194;50.950;5.346;2022-08-06T06:05:09;10.93;;;3.88;;
33902;SDS011;20194;50.950;5.346;2022-08-06T06:07:36;11.95;;;3.30;;
33902;SDS011;20194;50.950;5.346;2022-08-06T06:10:03;6.47;;;3.22;;
33902;SDS011;20194;50.950;5.346;2022-08-06T06:12:30;10.48;;;4.15;;
33902;SDS011;20194;50.950;5.346;2022-08-06T06:14:57;8.45;;;3.75;;
33902;SDS011;20194;50.950;5.346;2022-08-06T06:17:46;11.70;;;3.50;;
33902;SDS011;20194;50.950;5.346;2022-08-06T06:23:16;6.75;;;3.40;;
33902;SDS011;20194;50.950;5.346;2022-08-06T06:39:36;7.03;;;2.60;;
33902;SDS011;20194;50.950;5.346;2022-08-06T06:42:44;13.45;;;2.72;;
33902;SDS011;20194;50.950;5.346;2022-08-06T06:45:23;6.40;;;2.65;;
33902;SDS011;20194;50.950;5.346;2022-08-06T06:47:57;9.45;;;2.70;;
33902;SDS011;20194;50.950;5.346;2022-08-06T06:50:29;4.72;;;2.35;;
33902;SDS011;20194;50.950;5.346;2022-08-06T06:52:58;9.38;;;2.90;;
33902;SDS011;20194;50.950;5.346;2022-08-06T06:55:29;7.20;;;2.63;;
33902;SDS011;20194;50.950;5.346;2022-08-06T06:57:58;8.52;;;2.50;;
33902;SDS011;20194;50.950;5.346;2022-08-06T07:00:30;7.50;;;2.30;;
33902;SDS011;20194;50.950;5.346;2022-08-06T07:02:58;4.97;;;2.28;;
33902;SDS011;20194;50.950;5.346;2022-08-06T07:05:26;7.25;;;2.20;;
33902;SDS011;20194;50.950;5.346;2022-08-06T07:07:54;9.95;;;2.55;;
33902;SDS011;20194;50.950;5.346;2022-08-06T07:10:21;6.45;;;2.40;;
33902;SDS011;20194;50.950;5.346;2022-08-06T07:12:48;6.22;;;2.45;;
33902;SDS011;20194;50.950;5.346;2022-08-06T07:15:15;6.97;;;2.70;;
33902;SDS011;20194;50.950;5.346;2022-08-06T07:17:44;9.75;;;2.75;;
33902;SDS011;20194;50.950;5.346;2022-08-06T07:20:11;5.60;;;2.08;;
33902;SDS011;20194;50.950;5.346;2022-08-06T07:22:40;6.97;;;2.20;;
33902;SDS011;20194;50.950;5.346;2022-08-06T07:25:09;6.53;;;1.70;;
33902;SDS011;20194;50.950;5.346;2022-08-06T07:27:38;9.70;;;2.22;;
33902;SDS011;20194;50.950;5.346;2022-08-06T07:30:06;3.53;;;1.52;;
33902;SDS011;20194;50.950;5.346;2022-08-06T07:32:33;7.32;;;1.63;;
33902;SDS011;20194;50.950;5.346;2022-08-06T07:35:02;6.15;;;1.42;;
33902;SDS011;20194;50.950;5.346;2022-08-06T07:37:29;6.45;;;1.20;;
33902;SDS011;20194;50.950;5.346;2022-08-06T07:39:57;9.57;;;2.00;;
33902;SDS011;20194;50.950;5.346;2022-08-06T07:42:24;5.05;;;1.00;;
33902;SDS011;20194;50.950;5.346;2022-08-06T07:44:53;4.72;;;1.55;;
33902;SDS011;20194;50.950;5.346;2022-08-06T07:47:25;4.10;;;1.42;;
33902;SDS011;20194;50.950;5.346;2022-08-06T07:49:55;3.85;;;1.30;;
33902;SDS011;20194;50.950;5.346;2022-08-06T07:52:24;5.40;;;1.50;;
33902;SDS011;20194;50.950;5.346;2022-08-06T07:54:50;6.18;;;1.45;;
33902;SDS011;20194;50.950;5.346;2022-08-06T07:57:18;4.55;;;1.27;;
33902;SDS011;20194;50.950;5.346;2022-08-06T07:59:45;5.20;;;1.00;;
33902;SDS011;20194;50.950;5.346;2022-08-06T08:02:13;3.35;;;1.00;;
33902;SDS011;20194;50.950;5.346;2022-08-06T08:04:39;9.60;;;1.20;;
33902;SDS011;20194;50.950;5.346;2022-08-06T08:07:23;3.17;;;0.75;;
33902;SDS011;20194;50.950;5.346;2022-08-06T08:09:50;5.85;;;1.00;;
33902;SDS011;20194;50.950;5.346;2022-08-06T08:12:17;2.60;;;0.80;;
33902;SDS011;20194;50.950;5.346;2022-08-06T08:14:45;4.88;;;0.90;;
33902;SDS011;20194;50.950;5.346;2022-08-06T08:17:13;5.15;;;1.60;;
33902;SDS011;20194;50.950;5.346;2022-08-06T08:19:39;4.97;;;1.30;;
33902;SDS011;20194;50.950;5.346;2022-08-06T08:22:09;10.18;;;0.90;;
33902;SDS011;20194;50.950;5.346;2022-08-06T08:24:36;1.60;;;0.60;;
33902;SDS011;20194;50.950;5.346;2022-08-06T08:27:03;5.47;;;1.45;;
33902;SDS011;20194;50.950;5.346;2022-08-06T08:29:35;3.67;;;1.37;;
33902;SDS011;20194;50.950;5.346;2022-08-06T08:32:02;5.72;;;0.88;;
33902;SDS011;20194;50.950;5.346;2022-08-06T08:34:28;3.90;;;0.93;;
33902;SDS011;20194;50.950;5.346;2022-08-06T08:36:54;3.17;;;0.82;;
33902;SDS011;20194;50.950;5.346;2022-08-06T08:39:20;3.03;;;0.75;;
33902;SDS011;20194;50.950;5.346;2022-08-06T08:41:51;1.42;;;0.40;;
33902;SDS011;20194;50.950;5.346;2022-08-06T08:44:23;1.92;;;0.45;;
33902;SDS011;20194;50.950;5.346;2022-08-06T08:46:50;4.15;;;0.70;;
33902;SDS011;20194;50.950;5.346;2022-08-06T08:49:22;2.15;;;0.60;;
33902;SDS011;20194;50.950;5.346;2022-08-06T08:52:08;2.95;;;0.75;;
33902;SDS011;20194;50.950;5.346;2022-08-06T08:54:39;5.28;;;0.57;;
33902;SDS011;20194;50.950;5.346;2022-08-06T08:57:08;3.33;;;0.50;;
33902;SDS011;20194;50.950;5.346;2022-08-06T08:59:35;3.38;;;0.57;;
33902;SDS011;20194;50.950;5.346;2022-08-06T09:02:01;4.38;;;0.77;;
33902;SDS011;20194;50.950;5.346;2022-08-06T09:04:30;2.00;;;0.55;;
33902;SDS011;20194;50.950;5.346;2022-08-06T09:06:56;2.60;;;0.60;;
33902;SDS011;20194;50.950;5.346;2022-08-06T09:09:23;3.17;;;0.73;;
33902;SDS011;20194;50.950;5.346;2022-08-06T09:11:49;4.03;;;0.60;;
33902;SDS011;20194;50.950;5.346;2022-08-06T09:14:15;1.30;;;0.52;;
33902;SDS011;20194;50.950;5.346;2022-08-06T09:16:40;3.20;;;0.55;;
33902;SDS011;20194;50.950;5.346;2022-08-06T09:19:06;3.60;;;0.82;;
33902;SDS011;20194;50.950;5.346;2022-08-06T09:21:32;5.72;;;0.77;;
33902;SDS011;20194;50.950;5.346;2022-08-06T09:23:59;4.97;;;0.70;;
33902;SDS011;20194;50.950;5.346;2022-08-06T09:26:25;3.85;;;0.95;;
33902;SDS011;20194;50.950;5.346;2022-08-06T09:28:50;2.90;;;0.63;;
33902;SDS011;20194;50.950;5.346;2022-08-06T09:31:17;2.42;;;0.50;;
33902;SDS011;20194;50.950;5.346;2022-08-06T09:34:01;3.15;;;0.75;;
33902;SDS011;20194;50.950;5.346;2022-08-06T09:36:49;1.38;;;0.40;;
33902;SDS011;20194;50.950;5.346;2022-08-06T09:39:15;2.03;;;1.05;;
33902;SDS011;20194;50.950;5.346;2022-08-06T09:41:45;4.78;;;0.60;;
33902;SDS011;20194;50.950;5.346;2022-08-06T09:44:12;2.58;;;0.63;;
33902;SDS011;20194;50.950;5.346;2022-08-06T09:46:45;3.53;;;0.55;;
33902;SDS011;20194;50.950;5.346;2022-08-06T09:49:12;3.90;;;0.52;;
33902;SDS011;20194;50.950;5.346;2022-08-06T09:51:40;5.80;;;1.13;;
33902;SDS011;20194;50.950;5.346;2022-08-06T09:54:07;2.95;;;0.60;;
33902;SDS011;20194;50.950;5.346;2022-08-06T09:56:35;3.00;;;0.50;;
33902;SDS011;20194;50.950;5.346;2022-08-06T09:59:03;2.90;;;0.52;;
33902;SDS011;20194;50.950;5.346;2022-08-06T10:01:37;3.67;;;0.60;;
33902;SDS011;20194;50.950;5.346;2022-08-06T10:04:07;1.67;;;0.65;;
33902;SDS011;20194;50.950;5.346;2022-08-06T10:06:54;3.50;;;0.63;;
33902;SDS011;20194;50.950;5.346;2022-08-06T10:09:22;0.75;;;0.50;;
33902;SDS011;20194;50.950;5.346;2022-08-06T10:11:48;3.35;;;0.70;;
33902;SDS011;20194;50.950;5.346;2022-08-06T10:14:22;2.05;;;0.50;;
33902;SDS011;20194;50.950;5.346;2022-08-06T10:19:30;0.93;;;0.52;;
33902;SDS011;20194;50.950;5.346;2022-08-06T10:22:02;1.77;;;0.50;;
33902;SDS011;20194;50.950;5.346;2022-08-06T10:24:31;2.97;;;0.80;;
33902;SDS011;20194;50.950;5.346;2022-08-06T10:27:01;1.13;;;0.40;;
33902;SDS011;20194;50.950;5.346;2022-08-06T10:29:31;1.02;;;0.32;;
33902;SDS011;20194;50.950;5.346;2022-08-06T10:31:59;2.78;;;0.50;;
33902;SDS011;20194;50.950;5.346;2022-08-06T10:34:27;2.10;;;0.63;;
33902;SDS011;20194;50.950;5.346;2022-08-06T10:36:54;3.15;;;1.30;;
33902;SDS011;20194;50.950;5.346;2022-08-06T10:39:27;3.17;;;0.80;;
33902;SDS011;20194;50.950;5.346;2022-08-06T10:41:57;4.13;;;1.30;;
33902;SDS011;20194;50.950;5.346;2022-08-06T10:44:24;2.83;;;0.52;;
33902;SDS011;20194;50.950;5.346;2022-08-06T10:46:52;1.52;;;0.50;;
33902;SDS011;20194;50.950;5.346;2022-08-06T10:49:19;1.70;;;0.43;;
33902;SDS011;20194;50.950;5.346;2022-08-06T10:51:46;1.27;;;0.60;;
33902;SDS011;20194;50.950;5.346;2022-08-06T10:54:14;4.68;;;0.65;;
33902;SDS011;20194;50.950;5.346;2022-08-06T10:56:41;2.17;;;0.50;;
33902;SDS011;20194;50.950;5.346;2022-08-06T10:59:07;3.25;;;0.60;;
33902;SDS011;20194;50.950;5.346;2022-08-06T11:07:19;4.50;;;0.70;;
33902;SDS011;20194;50.950;5.346;2022-08-06T11:10:00;3.13;;;0.50;;
33902;SDS011;20194;50.950;5.346;2022-08-06T11:12:40;2.88;;;0.57;;
33902;SDS011;20194;50.950;5.346;2022-08-06T11:15:16;1.98;;;0.52;;
33902;SDS011;20194;50.950;5.346;2022-08-06T11:17:53;1.25;;;0.50;;
33902;SDS011;20194;50.950;5.346;2022-08-06T11:23:04;1.65;;;0.60;;
33902;SDS011;20194;50.950;5.346;2022-08-06T11:25:48;4.80;;;0.55;;
33902;SDS011;20194;50.950;5.346;2022-08-06T11:30:59;2.97;;;0.40;;
33902;SDS011;20194;50.950;5.346;2022-08-06T11:41:17;3.08;;;0.90;;
33902;SDS011;20194;50.950;5.346;2022-08-06T11:51:42;1.17;;;0.40;;
33902;SDS011;20194;50.950;5.346;2022-08-06T11:57:30;0.57;;;0.40;;
33902;SDS011;20194;50.950;5.346;2022-08-06T12:07:39;2.88;;;0.50;;
33902;SDS011;20194;50.950;5.346;2022-08-06T12:10:09;2.20;;;0.68;;
33902;SDS011;20194;50.950;5.346;2022-08-06T12:12:49;0.95;;;0.40;;
33902;SDS011;20194;50.950;5.346;2022-08-06T12:20:30;1.52;;;0.60;;
33902;SDS011;20194;50.950;5.346;2022-08-06T12:22:57;0.95;;;0.30;;
33902;SDS011;20194;50.950;5.346;2022-08-06T12:25:30;1.30;;;0.32;;
33902;SDS011;20194;50.950;5.346;2022-08-06T12:30:23;1.67;;;0.30;;
33902;SDS011;20194;50.950;5.346;2022-08-06T12:32:58;1.05;;;0.40;;
33902;SDS011;20194;50.950;5.346;2022-08-06T12:35:24;5.28;;;0.65;;
33902;SDS011;20194;50.950;5.346;2022-08-06T12:37:50;1.88;;;0.57;;
33902;SDS011;20194;50.950;5.346;2022-08-06T12:40:16;2.17;;;0.57;;
33902;SDS011;20194;50.950;5.346;2022-08-06T12:42:52;2.58;;;0.50;;
33902;SDS011;20194;50.950;5.346;2022-08-06T12:45:24;1.92;;;0.55;;
33902;SDS011;20194;50.950;5.346;2022-08-06T12:48:01;6.20;;;0.70;;
33902;SDS011;20194;50.950;5.346;2022-08-06T12:50:29;1.92;;;0.38;;
33902;SDS011;20194;50.950;5.346;2022-08-06T12:53:03;1.95;;;0.85;;
33902;SDS011;20194;50.950;5.346;2022-08-06T12:55:48;3.38;;;0.60;;
33902;SDS011;20194;50.950;5.346;2022-08-06T12:58:18;0.63;;;0.50;;
33902;SDS011;20194;50.950;5.346;2022-08-06T13:00:50;4.03;;;0.60;;
33902;SDS011;20194;50.950;5.346;2022-08-06T13:03:20;4.38;;;0.50;;
33902;SDS011;20194;50.950;5.346;2022-08-06T13:05:48;4.15;;;0.63;;
33902;SDS011;20194;50.950;5.346;2022-08-06T13:08:14;5.18;;;0.55;;
33902;SDS011;20194;50.950;5.346;2022-08-06T13:10:54;3.60;;;0.68;;
33902;SDS011;20194;50.950;5.346;2022-08-06T13:13:39;1.42;;;0.50;;
33902;SDS011;20194;50.950;5.346;2022-08-06T13:16:08;2.72;;;0.43;;
33902;SDS011;20194;50.950;5.346;2022-08-06T13:18:36;1.48;;;0.50;;
33902;SDS011;20194;50.950;5.346;2022-08-06T13:21:04;1.85;;;0.43;;
33902;SDS011;20194;50.950;5.346;2022-08-06T13:23:45;1.90;;;0.40;;
33902;SDS011;20194;50.950;5.346;2022-08-06T13:26:17;2.45;;;0.65;;
33902;SDS011;20194;50.950;5.346;2022-08-06T13:29:02;3.50;;;0.98;;
33902;SDS011;20194;50.950;5.346;2022-08-06T13:31:35;2.28;;;0.50;;
33902;SDS011;20194;50.950;5.346;2022-08-06T13:34:03;4.35;;;0.40;;
33902;SDS011;20194;50.950;5.346;2022-08-06T13:36:31;1.35;;;0.50;;
33902;SDS011;20194;50.950;5.346;2022-08-06T13:38:58;0.63;;;0.40;;
33902;SDS011;20194;50.950;5.346;2022-08-06T13:41:29;3.90;;;0.60;;
33902;SDS011;20194;50.950;5.346;2022-08-06T13:43:57;1.33;;;0.70;;
33902;SDS011;20194;50.950;5.346;2022-08-06T13:46:27;1.08;;;0.50;;
33902;SDS011;20194;50.950;5.346;2022-08-06T13:48:54;2.28;;;0.80;;
33902;SDS011;20194;50.950;5.346;2022-08-06T13:51:21;3.50;;;0.75;;
33902;SDS011;20194;50.950;5.346;2022-08-06T13:53:48;0.65;;;0.60;;
33902;SDS011;20194;50.950;5.346;2022-08-06T13:56:15;2.05;;;0.57;;
33902;SDS011;20194;50.950;5.346;2022-08-06T13:58:42;0.75;;;0.35;;
33902;SDS011;20194;50.950;5.346;2022-08-06T14:01:10;3.50;;;0.57;;
33902;SDS011;20194;50.950;5.346;2022-08-06T14:03:37;1.90;;;0.57;;
33902;SDS011;20194;50.950;5.346;2022-08-06T14:06:03;1.95;;;0.77;;
33902;SDS011;20194;50.950;5.346;2022-08-06T14:08:29;3.65;;;0.90;;
33902;SDS011;20194;50.950;5.346;2022-08-06T14:10:55;1.85;;;0.50;;
33902;SDS011;20194;50.950;5.346;2022-08-06T14:13:21;2.35;;;0.40;;
33902;SDS011;20194;50.950;5.346;2022-08-06T14:15:49;2.15;;;0.60;;
33902;SDS011;20194;50.950;5.346;2022-08-06T14:18:16;2.63;;;0.63;;
33902;SDS011;20194;50.950;5.346;2022-08-06T14:20:43;1.10;;;0.45;;
33902;SDS011;20194;50.950;5.346;2022-08-06T14:23:10;2.70;;;0.80;;
33902;SDS011;20194;50.950;5.346;2022-08-06T14:25:39;2.95;;;0.60;;
33902;SDS011;20194;50.950;5.346;2022-08-06T14:28:06;1.02;;;0.52;;
33902;SDS011;20194;50.950;5.346;2022-08-06T14:30:32;1.50;;;0.68;;
33902;SDS011;20194;50.950;5.346;2022-08-06T14:33:01;2.08;;;0.77;;
33902;SDS011;20194;50.950;5.346;2022-08-06T14:35:29;1.23;;;0.47;;
33902;SDS011;20194;50.950;5.346;2022-08-06T14:37:54;1.25;;;0.60;;
33902;SDS011;20194;50.950;5.346;2022-08-06T14:40:21;0.60;;;0.40;;
33902;SDS011;20194;50.950;5.346;2022-08-06T14:43:06;0.80;;;0.60;;
33902;SDS011;20194;50.950;5.346;2022-08-06T14:45:51;2.08;;;0.75;;
33902;SDS011;20194;50.950;5.346;2022-08-06T14:48:16;1.63;;;0.57;;
33902;SDS011;20194;50.950;5.346;2022-08-06T14:50:42;3.80;;;1.08;;
33902;SDS011;20194;50.950;5.346;2022-08-06T14:53:08;2.92;;;0.57;;
33902;SDS011;20194;50.950;5.346;2022-08-06T14:55:34;2.15;;;0.80;;
33902;SDS011;20194;50.950;5.346;2022-08-06T14:58:00;3.20;;;0.65;;
33902;SDS011;20194;50.950;5.346;2022-08-06T15:00:26;3.78;;;0.65;;
33902;SDS011;20194;50.950;5.346;2022-08-06T15:02:51;2.42;;;1.00;;
33902;SDS011;20194;50.950;5.346;2022-08-06T15:05:17;2.45;;;0.77;;
33902;SDS011;20194;50.950;5.346;2022-08-06T15:07:43;2.47;;;0.82;;
33902;SDS011;20194;50.950;5.346;2022-08-06T15:10:09;2.97;;;0.60;;
33902;SDS011;20194;50.950;5.346;2022-08-06T15:12:35;1.08;;;0.60;;
33902;SDS011;20194;50.950;5.346;2022-08-06T15:15:02;1.90;;;0.60;;
33902;SDS011;20194;50.950;5.346;2022-08-06T15:17:29;1.52;;;0.73;;
33902;SDS011;20194;50.950;5.346;2022-08-06T15:19:55;0.88;;;0.73;;
33902;SDS011;20194;50.950;5.346;2022-08-06T15:22:21;3.33;;;1.02;;
33902;SDS011;20194;50.950;5.346;2022-08-06T15:24:47;1.63;;;0.73;;
33902;SDS011;20194;50.950;5.346;2022-08-06T15:27:12;5.13;;;0.80;;
33902;SDS011;20194;50.950;5.346;2022-08-06T15:29:44;2.20;;;0.63;;
33902;SDS011;20194;50.950;5.346;2022-08-06T15:32:13;1.40;;;0.88;;
33902;SDS011;20194;50.950;5.346;2022-08-06T15:34:40;2.55;;;0.95;;
33902;SDS011;20194;50.950;5.346;2022-08-06T15:37:06;1.58;;;0.90;;
33902;SDS011;20194;50.950;5.346;2022-08-06T15:39:32;2.15;;;0.60;;
33902;SDS011;20194;50.950;5.346;2022-08-06T15:41:59;1.30;;;0.60;;
33902;SDS011;20194;50.950;5.346;2022-08-06T15:44:25;1.40;;;0.82;;
33902;SDS011;20194;50.950;5.346;2022-08-06T15:46:51;2.17;;;1.30;;
33902;SDS011;20194;50.950;5.346;2022-08-06T15:49:17;3.00;;;0.90;;
33902;SDS011;20194;50.950;5.346;2022-08-06T15:51:43;3.08;;;1.00;;
33902;SDS011;20194;50.950;5.346;2022-08-06T15:54:09;1.70;;;0.80;;
33902;SDS011;20194;50.950;5.346;2022-08-06T15:56:35;1.75;;;0.90;;
33902;SDS011;20194;50.950;5.346;2022-08-06T15:59:01;1.15;;;0.70;;
33902;SDS011;20194;50.950;5.346;2022-08-06T16:01:28;4.60;;;0.90;;
33902;SDS011;20194;50.950;5.346;2022-08-06T16:03:54;3.80;;;1.00;;
33902;SDS011;20194;50.950;5.346;2022-08-06T16:06:19;3.95;;;0.82;;
33902;SDS011;20194;50.950;5.346;2022-08-06T16:08:46;5.90;;;0.75;;
33902;SDS011;20194;50.950;5.346;2022-08-06T16:11:11;2.40;;;0.85;;
33902;SDS011;20194;50.950;5.346;2022-08-06T16:13:38;2.92;;;0.88;;
33902;SDS011;20194;50.950;5.346;2022-08-06T16:16:04;2.97;;;1.00;;
33902;SDS011;20194;50.950;5.346;2022-08-06T16:18:31;1.67;;;0.95;;